Main page
METAR-TAF:

METAR-TAF

Airports :

Lea County Regional Airport

Hobbs, New Mexico, United States

latitude: 32-41N, longitude: 103-13W, elevation: 3657 ft

Current weather observation

The report was made 19 minutes ago, at 06:15 UTC
Wind 10 mph from the Northwest
Temperature 23°F
Humidity 68%
Pressure 30.25 in. Hg
Visibility: 10 miles
Clear sky

METAR: KHOB 230615Z AUTO 32009KT 10SM CLR M05/M10 A3025 RMK AO2

Time: 23:34 (06:34 UTC)

Forecast

The report was made 1 hour and 14 minutes ago, at 05:20 UTC
Forecast valid from 23 at 06 UTC to 24 at 06 UTC
Wind 9 mph from the West/Northwest
Visibility: 6 miles
Clear sky
From 23 at 1800 UTC
Wind 14 mph from the West/Southwest with gusts up to 22 mph
Visibility: 6 miles
Clear sky

TAF: KHOB 230520Z 2306/2406 29008KT P6SM SKC FM231800 24012G19KT P6SM SKC

Weather observations and forecasts of more than 4000 airports (METAR and TAF reports).

The available stations are represented by yellow and red dots on the map.

Hover mouse over dot to see the name of the station.

Then click to see weather observations and forecasts.

To change the map : click on the green buttons with a black cross to zoom in, on the green button with a dash to zoom out, or on the green arrows for adjacent maps.


METAR-TAF: